Time;durP1;ratioP1;P1;durP2;ratioP2;P2;SDS_P1;SDS_P2;PMS_P1;PMS_P2;Temp;Humidity;BMP_temperature;BMP_pressure;BME280_temperature;BME280_humidity;BME280_pressure;Samples;Min_cycle;Max_cycle;Signal;HPM_P1;HPM_P2
2022/06/25 16:00:26;;;;;;;12.43;11.33;;;26.70;99.90;;;;;;5093475;28;20543;-78
2022/06/25 16:02:54;;;;;;;13.67;12.47;;;26.80;99.90;;;;;;5090687;28;20448;-77
2022/06/25 16:05:21;;;;;;;12.77;11.70;;;27.10;99.90;;;;;;5090749;28;20853;-75
2022/06/25 16:07:48;;;;;;;12.67;11.67;;;27.20;99.90;;;;;;5090439;28;20447;-76
2022/06/25 16:10:14;;;;;;;13.00;11.93;;;27.70;99.90;;;;;;5090048;28;20459;-76
2022/06/25 16:12:41;;;;;;;14.53;13.23;;;27.30;99.90;;;;;;5090118;28;20455;-76
2022/06/25 16:15:08;;;;;;;12.37;11.37;;;27.40;99.90;;;;;;5089684;28;20513;-76
2022/06/25 16:17:36;;;;;;;16.10;14.70;;;27.50;99.90;;;;;;5089857;28;20521;-76
2022/06/25 16:20:04;;;;;;;16.60;15.33;;;27.60;99.90;;;;;;5089987;28;20521;-76
2022/06/25 16:22:31;;;;;;;13.07;12.07;;;27.60;99.90;;;;;;5090197;28;20865;-76
2022/06/25 16:24:57;;;;;;;14.57;13.37;;;27.60;99.90;;;;;;5090457;28;20464;-76
2022/06/25 16:27:24;;;;;;;14.97;13.77;;;27.60;99.90;;;;;;5090196;28;20509;-76
2022/06/25 16:29:51;;;;;;;14.67;13.57;;;27.60;99.90;;;;;;5090201;28;20451;-77
2022/06/25 16:32:17;;;;;;;18.00;16.50;;;27.60;99.90;;;;;;5090010;28;20468;-76
2022/06/25 16:34:45;;;;;;;14.60;13.23;;;27.60;99.90;;;;;;5089255;28;20984;-76
2022/06/25 16:37:13;;;;;;;15.50;13.33;;;27.60;99.90;;;;;;5089107;28;20860;-75
2022/06/25 16:39:39;;;;;;;12.57;11.57;;;27.60;99.90;;;;;;5089113;28;20534;-75
2022/06/25 16:42:06;;;;;;;12.60;11.60;;;27.60;99.90;;;;;;5089782;28;20468;-76
2022/06/25 16:44:33;;;;;;;24.33;21.97;;;27.50;99.90;;;;;;5089260;28;20444;-76
2022/06/25 16:47:00;;;;;;;15.00;13.67;;;27.60;99.90;;;;;;5088923;28;20455;-76
2022/06/25 16:49:28;;;;;;;18.77;17.07;;;27.60;99.90;;;;;;5088934;28;20447;-76
2022/06/25 16:51:59;;;;;;;15.33;14.00;;;27.50;99.90;;;;;;5089025;28;20507;-75
2022/06/25 16:54:28;;;;;;;13.97;12.77;;;27.50;99.90;;;;;;5088995;28;20432;-75
2022/06/25 16:56:56;;;;;;;12.37;11.30;;;27.40;99.90;;;;;;5089047;28;20451;-76
2022/06/25 16:59:24;;;;;;;13.27;12.07;;;27.30;99.90;;;;;;5088675;28;20483;-76
2022/06/25 17:01:51;;;;;;;11.17;10.27;;;27.30;99.90;;;;;;5088722;28;21002;-76
2022/06/25 17:04:18;;;;;;;13.23;12.13;;;27.20;99.90;;;;;;5089378;28;20473;-76
2022/06/25 17:06:44;;;;;;;13.80;12.60;;;27.20;99.90;;;;;;5088555;28;20448;-76
2022/06/25 17:09:12;;;;;;;13.90;12.60;;;27.10;99.90;;;;;;5089159;28;20946;-75
2022/06/25 17:11:39;;;;;;;15.00;13.27;;;27.10;99.90;;;;;;5076277;28;20585;-75
2022/06/25 17:14:06;;;;;;;14.00;12.70;;;27.00;99.90;;;;;;5075500;28;20460;-77
2022/06/25 17:16:33;;;;;;;14.40;13.07;;;27.00;99.90;;;;;;5075268;28;20456;-76
2022/06/25 17:19:00;;;;;;;15.07;13.70;;;26.90;99.90;;;;;;5075205;28;20852;-76
2022/06/25 17:21:28;;;;;;;15.80;12.73;;;26.90;99.90;;;;;;5074973;28;20883;-76
2022/06/25 17:23:56;;;;;;;14.20;13.03;;;26.80;99.90;;;;;;5075252;28;20880;-78
2022/06/25 17:26:25;;;;;;;16.90;14.20;;;26.80;99.90;;;;;;5075916;28;20445;-76
2022/06/25 17:28:52;;;;;;;16.27;14.57;;;26.70;99.90;;;;;;5075023;28;20445;-76
2022/06/25 17:31:18;;;;;;;14.93;13.73;;;26.60;99.90;;;;;;5075186;28;20472;-77
2022/06/25 17:33:45;;;;;;;16.67;15.27;;;26.60;99.90;;;;;;5075785;28;20459;-79
2022/06/25 17:36:12;;;;;;;14.90;13.67;;;26.50;99.90;;;;;;5075999;28;20452;-77
2022/06/25 17:38:40;;;;;;;16.57;15.23;;;26.50;99.90;;;;;;5078586;28;20472;-77
2022/06/25 17:41:07;;;;;;;18.23;16.37;;;26.40;99.90;;;;;;5080523;28;20496;-77
2022/06/25 17:43:35;;;;;;;17.00;15.60;;;26.40;99.90;;;;;;5075182;28;20448;-77
2022/06/25 17:46:01;;;;;;;16.23;15.00;;;26.30;99.90;;;;;;5075412;28;20819;-77
2022/06/25 17:48:28;;;;;;;15.50;14.20;;;26.30;99.90;;;;;;5075471;28;20449;-77
2022/06/25 17:50:57;;;;;;;16.77;15.37;;;26.60;99.90;;;;;;5074145;28;20480;-77
2022/06/25 17:53:24;;;;;;;14.93;13.50;;;26.20;99.90;;;;;;5073311;28;20612;-77
2022/06/25 17:55:51;;;;;;;16.50;15.20;;;26.30;99.90;;;;;;5074548;28;20444;-77
2022/06/25 17:58:18;;;;;;;18.30;16.70;;;26.30;99.90;;;;;;5073290;28;20461;-77
2022/06/25 18:00:46;;;;;;;18.40;16.77;;;26.30;99.90;;;;;;5073908;28;20559;-77
2022/06/25 18:03:13;;;;;;;17.43;15.93;;;26.20;99.90;;;;;;5074810;28;20441;-77
2022/06/25 18:05:39;;;;;;;16.50;15.00;;;26.20;99.90;;;;;;5075594;28;20503;-77
2022/06/25 18:08:06;;;;;;;15.33;14.13;;;26.10;99.90;;;;;;5074865;28;20449;-77
2022/06/25 18:10:33;;;;;;;14.90;13.70;;;26.40;99.90;;;;;;5074234;28;20440;-76
2022/06/25 18:13:00;;;;;;;16.67;15.17;;;26.20;99.90;;;;;;5074273;28;20441;-77
2022/06/25 18:15:27;;;;;;;15.13;13.93;;;26.20;99.90;;;;;;5074896;28;20437;-77
2022/06/25 18:17:55;;;;;;;14.87;13.73;;;26.30;99.90;;;;;;5075706;28;20534;-76
2022/06/25 18:20:23;;;;;;;13.40;12.30;;;26.10;99.90;;;;;;5075040;28;20488;-76
2022/06/25 18:22:50;;;;;;;13.13;12.00;;;26.30;99.90;;;;;;5074928;28;20459;-76
2022/06/25 18:25:17;;;;;;;13.90;12.80;;;26.20;99.90;;;;;;5075774;28;20445;-76
2022/06/25 18:27:44;;;;;;;14.60;13.40;;;26.20;99.90;;;;;;5075561;28;20815;-76
2022/06/25 18:30:10;;;;;;;15.27;13.90;;;26.20;99.90;;;;;;5075803;28;20448;-76
2022/06/25 18:32:38;;;;;;;16.10;14.60;;;26.20;99.90;;;;;;5075804;28;20472;-77
2022/06/25 18:35:07;;;;;;;14.90;13.70;;;26.10;99.90;;;;;;5075099;28;20912;-76
2022/06/25 18:37:34;;;;;;;14.47;13.27;;;26.00;99.90;;;;;;5074866;28;20437;-77
2022/06/25 18:40:00;;;;;;;13.50;12.40;;;25.90;99.90;;;;;;5073906;28;20477;-77
2022/06/25 18:42:27;;;;;;;14.93;13.40;;;25.80;99.90;;;;;;5073711;28;20467;-77
2022/06/25 18:44:54;;;;;;;16.97;15.47;;;25.60;99.90;;;;;;5074172;28;20441;-78
2022/06/25 18:47:21;;;;;;;14.33;13.07;;;25.30;99.90;;;;;;5074161;28;20449;-76
2022/06/25 18:49:47;;;;;;;17.93;16.23;;;25.10;99.90;;;;;;5074126;28;20556;-76
2022/06/25 18:52:15;;;;;;;12.73;11.73;;;24.90;99.90;;;;;;5075482;28;20472;-76
2022/06/25 18:54:42;;;;;;;15.20;13.30;;;24.70;99.90;;;;;;5075293;28;20445;-76
2022/06/25 18:57:09;;;;;;;15.83;14.17;;;24.80;99.90;;;;;;5075332;28;20838;-77
2022/06/25 18:59:36;;;;;;;13.27;12.07;;;24.80;99.90;;;;;;5074466;28;20488;-77
2022/06/25 19:02:03;;;;;;;13.57;12.37;;;24.90;99.90;;;;;;5073883;28;20465;-76
2022/06/25 19:04:30;;;;;;;12.33;11.33;;;24.90;99.90;;;;;;5073709;28;20445;-76
2022/06/25 19:06:57;;;;;;;14.93;13.63;;;24.70;99.90;;;;;;5073774;28;20811;-76
2022/06/25 19:09:25;;;;;;;16.17;14.53;;;24.70;99.90;;;;;;5073630;28;20445;-77
2022/06/25 19:11:53;;;;;;;16.00;14.40;;;24.70;99.90;;;;;;5073333;28;20473;-76
2022/06/25 19:14:20;;;;;;;15.07;13.53;;;24.60;99.90;;;;;;5073397;28;20548;-76
2022/06/25 19:16:47;;;;;;;15.30;13.70;;;24.50;99.90;;;;;;5073017;28;20445;-77
2022/06/25 19:19:13;;;;;;;15.63;14.20;;;24.40;99.90;;;;;;5073892;28;20452;-78
2022/06/25 19:21:40;;;;;;;15.77;14.47;;;24.30;99.90;;;;;;5073632;28;20465;-77
2022/06/25 19:24:08;;;;;;;13.87;12.57;;;24.30;99.90;;;;;;5073291;28;20504;-77
2022/06/25 19:26:37;;;;;;;16.30;12.67;;;24.40;99.90;;;;;;5073668;28;20444;-77
2022/06/25 19:29:03;;;;;;;15.13;13.07;;;24.50;99.90;;;;;;5073479;28;20955;-77
2022/06/25 19:31:30;;;;;;;15.67;14.17;;;24.30;99.90;;;;;;5073947;28;20809;-77
2022/06/25 19:33:57;;;;;;;16.93;15.33;;;24.20;99.90;;;;;;5080057;28;20466;-77
2022/06/25 19:36:25;;;;;;;15.03;13.80;;;24.10;99.90;;;;;;5082338;28;20449;-77
2022/06/25 19:38:52;;;;;;;14.90;13.50;;;24.00;99.90;;;;;;5078564;28;20449;-77
2022/06/25 19:41:19;;;;;;;15.40;14.10;;;24.10;99.90;;;;;;5077121;28;20515;-77
2022/06/25 19:43:47;;;;;;;17.43;15.47;;;24.10;99.90;;;;;;5073905;28;20506;-76
2022/06/25 19:46:14;;;;;;;16.13;14.63;;;24.00;99.90;;;;;;5072797;28;20456;-76
2022/06/25 19:48:41;;;;;;;18.27;16.57;;;23.90;99.90;;;;;;5072879;28;20468;-76
2022/06/25 19:51:08;;;;;;;18.07;16.20;;;23.90;99.90;;;;;;5072774;28;20538;-78
2022/06/25 19:53:35;;;;;;;18.43;16.13;;;23.80;99.90;;;;;;5073020;28;20448;-76
2022/06/25 19:56:01;;;;;;;15.37;13.97;;;23.80;99.90;;;;;;5072954;28;20445;-76
2022/06/25 19:58:28;;;;;;;16.90;15.27;;;23.70;99.90;;;;;;5074765;28;20928;-77
2022/06/25 20:00:56;;;;;;;23.57;21.23;;;23.80;99.90;;;;;;5082869;22;20501;-77
2022/06/25 20:03:23;;;;;;;31.07;20.27;;;23.80;99.90;;;;;;5053038;28;20556;-76
2022/06/25 20:05:50;;;;;;;22.20;19.77;;;23.70;99.90;;;;;;5053230;28;20936;-76
2022/06/25 20:08:19;;;;;;;20.77;18.60;;;23.70;99.90;;;;;;5053227;28;21015;-77
2022/06/25 20:10:46;;;;;;;20.30;18.33;;;23.70;99.90;;;;;;5052684;28;20460;-76
2022/06/25 20:13:13;;;;;;;21.03;19.03;;;23.70;99.90;;;;;;5053963;28;20446;-78
2022/06/25 20:15:40;;;;;;;21.97;19.90;;;23.70;99.90;;;;;;5055662;28;21013;-78
2022/06/25 20:18:09;;;;;;;22.13;19.50;;;23.60;99.90;;;;;;5059430;28;20441;-79
2022/06/25 20:20:37;;;;;;;19.17;17.13;;;23.60;99.90;;;;;;5057858;28;20489;-78
2022/06/25 20:23:04;;;;;;;22.40;19.70;;;23.50;99.90;;;;;;5056386;28;20449;-78
2022/06/25 20:25:32;;;;;;;24.73;22.23;;;23.60;99.90;;;;;;5053848;28;20468;-77
2022/06/25 20:27:59;;;;;;;21.73;19.67;;;23.60;99.90;;;;;;5053098;28;20453;-77
2022/06/25 20:30:31;;;;;;;21.97;19.80;;;23.60;99.90;;;;;;5053745;28;20454;-77
2022/06/25 20:32:58;;;;;;;20.53;18.43;;;23.50;99.90;;;;;;5053906;28;20429;-78
2022/06/25 20:35:26;;;;;;;19.17;17.27;;;23.50;99.90;;;;;;5053012;28;20446;-78
2022/06/25 20:37:53;;;;;;;23.17;19.80;;;23.60;99.90;;;;;;5053595;28;20457;-79
2022/06/25 20:40:22;;;;;;;19.97;17.87;;;23.60;99.90;;;;;;5055687;28;20493;-78
2022/06/25 20:42:49;;;;;;;19.37;17.37;;;23.70;99.90;;;;;;5053762;28;20453;-77
2022/06/25 20:45:16;;;;;;;19.20;17.30;;;23.50;99.90;;;;;;5054236;28;20449;-79
2022/06/25 20:47:43;;;;;;;19.20;17.40;;;23.50;99.90;;;;;;5058579;28;20519;-78
2022/06/25 20:50:13;;;;;;;19.97;17.83;;;23.50;99.90;;;;;;5057361;28;20473;-78
2022/06/25 20:52:42;;;;;;;20.43;18.53;;;23.40;99.90;;;;;;5056633;28;20454;-76
2022/06/25 20:55:09;;;;;;;23.03;19.47;;;23.40;99.90;;;;;;5056715;28;20450;-78
2022/06/25 20:57:37;;;;;;;20.83;18.83;;;23.50;99.90;;;;;;5056872;28;20520;-78
2022/06/25 21:00:05;;;;;;;20.50;18.60;;;23.50;99.90;;;;;;5056168;28;20485;-77
2022/06/25 21:02:32;;;;;;;20.53;18.53;;;23.40;99.90;;;;;;5056595;28;20959;-77
2022/06/25 21:08:05;;;;;;;22.60;20.40;;;23.40;99.90;;;;;;5056051;28;20417;-77
2022/06/25 21:10:31;;;;;;;20.47;18.57;;;23.30;99.90;;;;;;5056347;28;20814;-77
2022/06/25 21:12:58;;;;;;;22.70;20.43;;;23.30;99.90;;;;;;5055715;28;20453;-77
2022/06/25 21:15:25;;;;;;;24.40;21.10;;;23.20;99.90;;;;;;5055947;28;20855;-77
2022/06/25 21:17:52;;;;;;;24.90;22.50;;;23.20;99.90;;;;;;5055820;28;20449;-77
2022/06/25 21:20:19;;;;;;;26.67;24.13;;;23.20;99.90;;;;;;5055703;28;20492;-78
2022/06/25 21:22:47;;;;;;;30.60;26.10;;;23.10;99.90;;;;;;5056597;28;20445;-78
2022/06/25 21:25:14;;;;;;;26.27;23.83;;;23.10;99.90;;;;;;5056144;28;20568;-78
2022/06/25 21:27:41;;;;;;;30.43;25.47;;;23.00;99.90;;;;;;5056528;28;20445;-78
2022/06/25 21:30:09;;;;;;;28.40;25.50;;;23.00;99.90;;;;;;5057334;28;20987;-78
2022/06/25 21:32:36;;;;;;;27.40;24.67;;;22.90;99.90;;;;;;5055891;28;20445;-77
2022/06/25 21:35:03;;;;;;;24.60;22.30;;;22.90;99.90;;;;;;5057690;28;20817;-78
2022/06/25 21:37:30;;;;;;;24.40;21.93;;;22.90;99.90;;;;;;5056151;28;20449;-78
2022/06/25 21:39:58;;;;;;;25.53;22.93;;;22.90;99.90;;;;;;5056443;28;20466;-76
2022/06/25 21:42:25;;;;;;;27.30;24.70;;;22.90;99.90;;;;;;5055630;28;20457;-77
2022/06/25 21:44:51;;;;;;;25.60;23.10;;;22.90;99.90;;;;;;5055511;28;20457;-77
2022/06/25 21:47:18;;;;;;;24.03;21.80;;;22.90;99.90;;;;;;5055373;28;20461;-77
2022/06/25 21:49:45;;;;;;;25.93;23.53;;;22.80;99.90;;;;;;5055409;28;20515;-76
2022/06/25 21:52:12;;;;;;;27.17;24.33;;;22.80;99.90;;;;;;5055174;28;20812;-77
2022/06/25 21:54:39;;;;;;;25.77;23.50;;;22.80;99.90;;;;;;5055468;28;20495;-77
2022/06/25 21:57:07;;;;;;;25.77;23.27;;;22.70;99.90;;;;;;5055329;28;20446;-77
2022/06/25 21:59:34;;;;;;;26.37;22.90;;;22.50;99.90;;;;;;5055160;28;20457;-77
2022/06/25 22:02:01;;;;;;;24.57;22.23;;;22.70;99.90;;;;;;5055494;28;20481;-77
2022/06/25 22:04:27;;;;;;;24.00;21.57;;;22.80;99.90;;;;;;5055418;28;20863;-78
2022/06/25 22:06:54;;;;;;;23.30;21.10;;;22.80;99.90;;;;;;5055125;28;20456;-77
2022/06/25 22:09:21;;;;;;;26.60;24.00;;;22.70;99.90;;;;;;5055039;28;20495;-76
2022/06/25 22:11:48;;;;;;;26.23;23.83;;;22.80;99.90;;;;;;5054794;28;20953;-78
2022/06/25 22:14:16;;;;;;;22.70;20.60;;;22.90;99.90;;;;;;5055215;28;20504;-77
2022/06/25 22:16:42;;;;;;;24.77;22.67;;;22.90;99.90;;;;;;5058488;28;20450;-77
2022/06/25 22:19:09;;;;;;;26.07;23.30;;;22.80;99.90;;;;;;5054857;28;20445;-76
2022/06/25 22:21:36;;;;;;;27.53;25.03;;;22.80;99.90;;;;;;5054631;28;20851;-77
2022/06/25 22:24:03;;;;;;;28.33;25.63;;;22.70;99.90;;;;;;5054792;28;20452;-77
2022/06/25 22:26:30;;;;;;;27.30;24.50;;;22.70;99.90;;;;;;5054678;28;20503;-77
2022/06/25 22:28:57;;;;;;;27.07;24.47;;;22.70;99.90;;;;;;5054739;28;20564;-77
2022/06/25 22:31:25;;;;;;;25.57;23.23;;;22.60;99.90;;;;;;5054693;28;20466;-76
2022/06/25 22:33:52;;;;;;;31.10;27.93;;;23.00;99.90;;;;;;5054475;28;20457;-76
2022/06/25 22:36:19;;;;;;;30.10;26.90;;;22.50;99.90;;;;;;5054460;28;20446;-76
2022/06/25 22:38:45;;;;;;;29.50;26.60;;;22.50;99.90;;;;;;5054450;28;20450;-76
2022/06/25 22:41:12;;;;;;;29.40;26.57;;;22.50;99.90;;;;;;5054320;28;20490;-77
2022/06/25 22:43:39;;;;;;;31.40;28.10;;;22.50;99.90;;;;;;5054568;28;20446;-76
2022/06/25 22:46:06;;;;;;;31.67;28.50;;;22.50;99.90;;;;;;5054153;28;20834;-77
2022/06/25 22:48:34;;;;;;;34.03;30.87;;;22.50;99.90;;;;;;5054368;28;20453;-76
2022/06/25 22:51:01;;;;;;;31.77;28.80;;;22.40;99.90;;;;;;5054383;28;20563;-77
2022/06/25 22:53:27;;;;;;;29.90;27.20;;;22.30;99.90;;;;;;5053950;28;20446;-77
2022/06/25 22:55:54;;;;;;;30.77;27.87;;;;;;;;;;5053970;28;20446;-76
2022/06/25 22:58:22;;;;;;;29.17;26.50;;;22.30;99.90;;;;;;5053626;28;20971;-76
2022/06/25 23:00:49;;;;;;;30.57;27.80;;;22.30;99.90;;;;;;5054247;28;20536;-79
2022/06/25 23:03:15;;;;;;;31.47;28.40;;;22.30;99.90;;;;;;5054413;28;20479;-78
2022/06/25 23:05:43;;;;;;;31.43;28.33;;;22.30;99.90;;;;;;5054220;28;20450;-79
2022/06/25 23:08:10;;;;;;;27.33;24.73;;;22.30;99.90;;;;;;5054469;28;20445;-77
2022/06/25 23:10:37;;;;;;;27.10;24.70;;;22.40;99.90;;;;;;5053876;28;20573;-77
2022/06/25 23:13:06;;;;;;;28.03;25.53;;;22.30;99.90;;;;;;5053576;28;20457;-76
2022/06/25 23:15:33;;;;;;;28.33;25.77;;;22.30;99.90;;;;;;5053164;28;20940;-76
2022/06/25 23:18:00;;;;;;;28.60;26.10;;;22.20;99.90;;;;;;5053450;28;20454;-77
2022/06/25 23:20:26;;;;;;;27.53;24.90;;;22.20;99.90;;;;;;5053247;28;20465;-76
2022/06/25 23:22:54;;;;;;;29.00;26.30;;;22.20;99.90;;;;;;5053480;28;20448;-77
2022/06/25 23:25:21;;;;;;;28.33;25.37;;;22.10;99.90;;;;;;5053389;28;20446;-76
2022/06/25 23:27:48;;;;;;;28.53;25.93;;;22.10;99.90;;;;;;5052908;28;20438;-76
2022/06/25 23:30:15;;;;;;;28.73;26.00;;;22.10;99.90;;;;;;5053625;28;20461;-75
2022/06/25 23:32:42;;;;;;;29.23;26.57;;;22.20;99.90;;;;;;5053264;28;20442;-77
2022/06/25 23:35:10;;;;;;;28.70;25.83;;;22.20;99.90;;;;;;5053160;28;20463;-76
2022/06/25 23:37:37;;;;;;;28.50;25.70;;;22.10;99.90;;;;;;5053149;28;20440;-77
2022/06/25 23:40:06;;;;;;;26.13;23.50;;;22.00;99.90;;;;;;5053111;28;20468;-75
2022/06/25 23:42:33;;;;;;;25.70;23.50;;;22.00;99.90;;;;;;5053099;28;20539;-76
2022/06/25 23:45:00;;;;;;;26.93;24.57;;;22.00;99.90;;;;;;5053048;28;20454;-77
2022/06/25 23:47:27;;;;;;;25.60;23.27;;;21.90;99.90;;;;;;5053175;28;20448;-76
2022/06/25 23:49:54;;;;;;;26.63;24.23;;;21.90;99.90;;;;;;5052986;28;20834;-77
2022/06/25 23:52:20;;;;;;;27.80;25.20;;;21.80;99.90;;;;;;5052922;28;20446;-77
2022/06/25 23:54:47;;;;;;;23.90;21.53;;;21.80;99.90;;;;;;5052927;28;20449;-76
2022/06/25 23:57:15;;;;;;;25.73;23.33;;;21.80;99.90;;;;;;5052637;28;20441;-76
2022/06/25 23:59:42;;;;;;;26.43;23.50;;;21.80;99.90;;;;;;5052535;28;20484;-77
